sensor_id;sensor_type;location;lat;lon;timestamp;temperature;humidity
21261;DHT22;10788;47.930;9.766;2023-07-09T00:01:59;20.10;99.90
21261;DHT22;10788;47.930;9.766;2023-07-09T00:04:25;20.10;99.90
21261;DHT22;10788;47.930;9.766;2023-07-09T00:06:51;20.00;99.90
21261;DHT22;10788;47.930;9.766;2023-07-09T00:09:20;20.00;99.90
21261;DHT22;10788;47.930;9.766;2023-07-09T00:11:46;20.00;99.90
21261;DHT22;10788;47.930;9.766;2023-07-09T00:14:14;20.00;99.90
21261;DHT22;10788;47.930;9.766;2023-07-09T00:16:42;20.00;99.90
21261;DHT22;10788;47.930;9.766;2023-07-09T00:19:16;20.00;99.90
21261;DHT22;10788;47.930;9.766;2023-07-09T00:21:43;20.00;99.90
21261;DHT22;10788;47.930;9.766;2023-07-09T00:24:11;20.00;99.90
21261;DHT22;10788;47.930;9.766;2023-07-09T00:26:38;19.90;99.90
21261;DHT22;10788;47.930;9.766;2023-07-09T00:29:04;19.90;99.90
21261;DHT22;10788;47.930;9.766;2023-07-09T00:31:30;19.80;99.90
21261;DHT22;10788;47.930;9.766;2023-07-09T00:33:55;19.80;99.90
21261;DHT22;10788;47.930;9.766;2023-07-09T00:36:29;19.80;99.90
21261;DHT22;10788;47.930;9.766;2023-07-09T00:38:58;19.80;99.90
21261;DHT22;10788;47.930;9.766;2023-07-09T00:41:33;19.70;99.90
21261;DHT22;10788;47.930;9.766;2023-07-09T00:49:35;19.60;99.90
21261;DHT22;10788;47.930;9.766;2023-07-09T00:52:11;19.60;99.90
21261;DHT22;10788;47.930;9.766;2023-07-09T00:54:41;19.60;99.90
21261;DHT22;10788;47.930;9.766;2023-07-09T00:57:13;19.60;99.90
21261;DHT22;10788;47.930;9.766;2023-07-09T00:59:44;19.50;99.90
21261;DHT22;10788;47.930;9.766;2023-07-09T01:02:10;19.40;99.90
21261;DHT22;10788;47.930;9.766;2023-07-09T01:04:36;19.40;99.90
21261;DHT22;10788;47.930;9.766;2023-07-09T01:07:04;19.40;99.90
21261;DHT22;10788;47.930;9.766;2023-07-09T01:09:30;19.30;99.90
21261;DHT22;10788;47.930;9.766;2023-07-09T01:11:58;19.20;99.90
21261;DHT22;10788;47.930;9.766;2023-07-09T01:14:26;19.20;99.90
21261;DHT22;10788;47.930;9.766;2023-07-09T01:17:10;19.20;99.90
21261;DHT22;10788;47.930;9.766;2023-07-09T01:19:39;19.20;99.90
21261;DHT22;10788;47.930;9.766;2023-07-09T01:22:13;19.10;99.90
21261;DHT22;10788;47.930;9.766;2023-07-09T01:25:06;19.10;99.90
21261;DHT22;10788;47.930;9.766;2023-07-09T01:27:42;19.00;99.90
21261;DHT22;10788;47.930;9.766;2023-07-09T01:30:18;19.00;99.90
21261;DHT22;10788;47.930;9.766;2023-07-09T01:32:48;19.00;99.90
21261;DHT22;10788;47.930;9.766;2023-07-09T01:35:18;18.90;99.90
21261;DHT22;10788;47.930;9.766;2023-07-09T01:37:44;18.90;99.90
21261;DHT22;10788;47.930;9.766;2023-07-09T01:40:14;19.00;99.90
21261;DHT22;10788;47.930;9.766;2023-07-09T01:42:40;19.00;99.90
21261;DHT22;10788;47.930;9.766;2023-07-09T01:45:08;19.00;99.90
21261;DHT22;10788;47.930;9.766;2023-07-09T01:47:36;19.00;99.90
21261;DHT22;10788;47.930;9.766;2023-07-09T01:50:03;19.00;99.90
21261;DHT22;10788;47.930;9.766;2023-07-09T01:52:30;18.90;99.90
21261;DHT22;10788;47.930;9.766;2023-07-09T01:54:57;18.90;99.90
21261;DHT22;10788;47.930;9.766;2023-07-09T01:57:25;18.80;99.90
21261;DHT22;10788;47.930;9.766;2023-07-09T01:59:52;18.80;99.90
21261;DHT22;10788;47.930;9.766;2023-07-09T02:02:23;18.70;99.90
21261;DHT22;10788;47.930;9.766;2023-07-09T02:04:50;18.70;99.90
21261;DHT22;10788;47.930;9.766;2023-07-09T02:07:17;18.70;99.90
21261;DHT22;10788;47.930;9.766;2023-07-09T02:09:43;18.60;99.90
21261;DHT22;10788;47.930;9.766;2023-07-09T02:12:09;18.60;99.90
21261;DHT22;10788;47.930;9.766;2023-07-09T02:14:36;18.60;99.90
21261;DHT22;10788;47.930;9.766;2023-07-09T02:17:01;18.50;99.90
21261;DHT22;10788;47.930;9.766;2023-07-09T02:19:28;18.50;99.90
21261;DHT22;10788;47.930;9.766;2023-07-09T02:21:54;18.50;99.90
21261;DHT22;10788;47.930;9.766;2023-07-09T02:24:20;18.50;99.90
21261;DHT22;10788;47.930;9.766;2023-07-09T02:26:50;18.60;99.90
21261;DHT22;10788;47.930;9.766;2023-07-09T02:29:15;18.50;99.90
21261;DHT22;10788;47.930;9.766;2023-07-09T02:31:41;18.50;99.90
21261;DHT22;10788;47.930;9.766;2023-07-09T02:34:07;18.50;99.90
21261;DHT22;10788;47.930;9.766;2023-07-09T02:36:32;18.50;99.90
21261;DHT22;10788;47.930;9.766;2023-07-09T02:38:58;18.40;99.90
21261;DHT22;10788;47.930;9.766;2023-07-09T02:41:23;18.40;99.90
21261;DHT22;10788;47.930;9.766;2023-07-09T02:43:49;18.50;99.90
21261;DHT22;10788;47.930;9.766;2023-07-09T02:46:15;18.40;99.90
21261;DHT22;10788;47.930;9.766;2023-07-09T02:48:40;18.40;99.90
21261;DHT22;10788;47.930;9.766;2023-07-09T02:51:06;18.40;99.90
21261;DHT22;10788;47.930;9.766;2023-07-09T02:53:32;18.40;99.90
21261;DHT22;10788;47.930;9.766;2023-07-09T02:55:57;18.40;99.90
21261;DHT22;10788;47.930;9.766;2023-07-09T02:58:23;18.40;99.90
21261;DHT22;10788;47.930;9.766;2023-07-09T03:00:49;18.30;99.90
21261;DHT22;10788;47.930;9.766;2023-07-09T03:03:19;18.30;99.90
21261;DHT22;10788;47.930;9.766;2023-07-09T03:05:46;18.30;99.90
21261;DHT22;10788;47.930;9.766;2023-07-09T03:08:11;18.30;99.90
21261;DHT22;10788;47.930;9.766;2023-07-09T03:10:37;18.30;99.90
21261;DHT22;10788;47.930;9.766;2023-07-09T03:13:03;18.30;99.90
21261;DHT22;10788;47.930;9.766;2023-07-09T03:15:30;18.20;99.90
21261;DHT22;10788;47.930;9.766;2023-07-09T03:17:56;18.20;99.90
21261;DHT22;10788;47.930;9.766;2023-07-09T03:20:22;18.20;99.90
21261;DHT22;10788;47.930;9.766;2023-07-09T03:22:47;18.20;99.90
21261;DHT22;10788;47.930;9.766;2023-07-09T03:25:13;18.10;99.90
21261;DHT22;10788;47.930;9.766;2023-07-09T03:27:39;18.10;99.90
21261;DHT22;10788;47.930;9.766;2023-07-09T03:30:05;18.00;99.90
21261;DHT22;10788;47.930;9.766;2023-07-09T03:32:31;18.00;99.90
21261;DHT22;10788;47.930;9.766;2023-07-09T03:34:56;18.00;99.90
21261;DHT22;10788;47.930;9.766;2023-07-09T03:37:22;18.00;99.90
21261;DHT22;10788;47.930;9.766;2023-07-09T03:39:47;18.00;99.90
21261;DHT22;10788;47.930;9.766;2023-07-09T03:42:13;18.00;99.90
21261;DHT22;10788;47.930;9.766;2023-07-09T03:44:39;17.90;99.90
21261;DHT22;10788;47.930;9.766;2023-07-09T03:47:06;17.90;99.90
21261;DHT22;10788;47.930;9.766;2023-07-09T03:49:31;17.90;99.90
21261;DHT22;10788;47.930;9.766;2023-07-09T03:51:57;17.90;99.90
21261;DHT22;10788;47.930;9.766;2023-07-09T03:54:23;18.00;99.90
21261;DHT22;10788;47.930;9.766;2023-07-09T03:56:49;17.90;99.90
21261;DHT22;10788;47.930;9.766;2023-07-09T03:59:14;17.90;99.90
21261;DHT22;10788;47.930;9.766;2023-07-09T04:01:40;17.90;99.90
21261;DHT22;10788;47.930;9.766;2023-07-09T04:04:09;17.90;99.90
21261;DHT22;10788;47.930;9.766;2023-07-09T04:06:35;17.90;99.90
21261;DHT22;10788;47.930;9.766;2023-07-09T04:09:00;17.80;99.90
21261;DHT22;10788;47.930;9.766;2023-07-09T04:11:26;17.80;99.90
21261;DHT22;10788;47.930;9.766;2023-07-09T04:13:51;17.80;99.90
21261;DHT22;10788;47.930;9.766;2023-07-09T04:16:17;17.80;99.90
21261;DHT22;10788;47.930;9.766;2023-07-09T04:18:43;17.80;99.90
21261;DHT22;10788;47.930;9.766;2023-07-09T04:21:08;17.80;99.90
21261;DHT22;10788;47.930;9.766;2023-07-09T04:23:34;17.80;99.90
21261;DHT22;10788;47.930;9.766;2023-07-09T04:25:59;17.80;99.90
21261;DHT22;10788;47.930;9.766;2023-07-09T04:28:28;17.90;99.90
21261;DHT22;10788;47.930;9.766;2023-07-09T04:30:55;17.90;99.90
21261;DHT22;10788;47.930;9.766;2023-07-09T04:33:21;17.90;99.90
21261;DHT22;10788;47.930;9.766;2023-07-09T04:35:47;17.90;99.90
21261;DHT22;10788;47.930;9.766;2023-07-09T04:38:14;17.90;99.90
21261;DHT22;10788;47.930;9.766;2023-07-09T04:40:40;17.90;99.90
21261;DHT22;10788;47.930;9.766;2023-07-09T04:43:06;17.90;99.90
21261;DHT22;10788;47.930;9.766;2023-07-09T04:45:32;17.90;99.90
21261;DHT22;10788;47.930;9.766;2023-07-09T04:47:57;17.90;99.90
21261;DHT22;10788;47.930;9.766;2023-07-09T04:50:23;18.00;99.90
21261;DHT22;10788;47.930;9.766;2023-07-09T04:52:48;18.00;99.90
21261;DHT22;10788;47.930;9.766;2023-07-09T04:55:14;18.10;99.90
21261;DHT22;10788;47.930;9.766;2023-07-09T04:57:40;18.10;99.90
21261;DHT22;10788;47.930;9.766;2023-07-09T05:00:06;18.10;99.90
21261;DHT22;10788;47.930;9.766;2023-07-09T05:02:32;18.10;99.90
21261;DHT22;10788;47.930;9.766;2023-07-09T05:04:58;18.10;99.90
21261;DHT22;10788;47.930;9.766;2023-07-09T05:07:24;18.10;99.90
21261;DHT22;10788;47.930;9.766;2023-07-09T05:09:50;18.10;99.90
21261;DHT22;10788;47.930;9.766;2023-07-09T05:12:15;18.10;99.90
21261;DHT22;10788;47.930;9.766;2023-07-09T05:14:41;18.20;99.90
21261;DHT22;10788;47.930;9.766;2023-07-09T05:17:07;18.20;99.90
21261;DHT22;10788;47.930;9.766;2023-07-09T05:19:33;18.20;99.90
21261;DHT22;10788;47.930;9.766;2023-07-09T05:21:59;18.30;99.90
21261;DHT22;10788;47.930;9.766;2023-07-09T05:24:24;18.40;99.90
21261;DHT22;10788;47.930;9.766;2023-07-09T05:26:50;18.50;99.90
21261;DHT22;10788;47.930;9.766;2023-07-09T05:29:16;18.70;99.90
21261;DHT22;10788;47.930;9.766;2023-07-09T05:31:41;18.80;99.90
21261;DHT22;10788;47.930;9.766;2023-07-09T05:34:08;19.00;99.90
21261;DHT22;10788;47.930;9.766;2023-07-09T05:36:34;19.20;99.90
21261;DHT22;10788;47.930;9.766;2023-07-09T05:38:59;19.40;99.90
21261;DHT22;10788;47.930;9.766;2023-07-09T05:41:25;19.50;99.90
21261;DHT22;10788;47.930;9.766;2023-07-09T05:43:51;19.60;99.90
21261;DHT22;10788;47.930;9.766;2023-07-09T05:46:18;19.80;99.90
21261;DHT22;10788;47.930;9.766;2023-07-09T05:48:44;20.00;99.90
21261;DHT22;10788;47.930;9.766;2023-07-09T05:51:09;20.10;99.90
21261;DHT22;10788;47.930;9.766;2023-07-09T05:53:35;20.30;99.90
21261;DHT22;10788;47.930;9.766;2023-07-09T05:56:01;20.50;99.90
21261;DHT22;10788;47.930;9.766;2023-07-09T05:58:27;20.70;99.90
21261;DHT22;10788;47.930;9.766;2023-07-09T06:00:53;20.80;99.90
21261;DHT22;10788;47.930;9.766;2023-07-09T06:03:20;21.00;99.90
21261;DHT22;10788;47.930;9.766;2023-07-09T06:05:47;21.20;99.90
21261;DHT22;10788;47.930;9.766;2023-07-09T06:08:15;21.30;99.90
21261;DHT22;10788;47.930;9.766;2023-07-09T06:11:02;21.50;99.90
21261;DHT22;10788;47.930;9.766;2023-07-09T06:13:29;21.60;99.90
21261;DHT22;10788;47.930;9.766;2023-07-09T06:15:56;21.80;99.90
21261;DHT22;10788;47.930;9.766;2023-07-09T06:18:24;21.90;99.90
21261;DHT22;10788;47.930;9.766;2023-07-09T06:20:52;22.10;99.90
21261;DHT22;10788;47.930;9.766;2023-07-09T06:23:18;22.20;99.90
21261;DHT22;10788;47.930;9.766;2023-07-09T06:25:45;22.40;99.90
21261;DHT22;10788;47.930;9.766;2023-07-09T06:28:19;22.50;99.90
21261;DHT22;10788;47.930;9.766;2023-07-09T06:30:45;22.60;99.90
21261;DHT22;10788;47.930;9.766;2023-07-09T06:33:13;22.70;99.90
21261;DHT22;10788;47.930;9.766;2023-07-09T06:35:39;22.90;99.90
21261;DHT22;10788;47.930;9.766;2023-07-09T06:38:07;23.10;99.90
21261;DHT22;10788;47.930;9.766;2023-07-09T06:40:33;23.20;99.90
21261;DHT22;10788;47.930;9.766;2023-07-09T06:42:58;23.30;99.90
21261;DHT22;10788;47.930;9.766;2023-07-09T06:45:24;23.40;99.90
21261;DHT22;10788;47.930;9.766;2023-07-09T06:47:50;23.50;99.90
21261;DHT22;10788;47.930;9.766;2023-07-09T06:50:16;23.50;99.90
21261;DHT22;10788;47.930;9.766;2023-07-09T06:52:42;23.60;99.90
21261;DHT22;10788;47.930;9.766;2023-07-09T06:55:08;23.70;99.90
21261;DHT22;10788;47.930;9.766;2023-07-09T06:57:34;23.80;99.90
21261;DHT22;10788;47.930;9.766;2023-07-09T07:00:00;24.00;99.90
21261;DHT22;10788;47.930;9.766;2023-07-09T07:02:25;24.10;99.90
21261;DHT22;10788;47.930;9.766;2023-07-09T07:04:51;24.10;99.90
21261;DHT22;10788;47.930;9.766;2023-07-09T07:07:16;24.20;99.90
21261;DHT22;10788;47.930;9.766;2023-07-09T07:09:42;24.30;99.90
21261;DHT22;10788;47.930;9.766;2023-07-09T07:12:08;24.50;99.90
21261;DHT22;10788;47.930;9.766;2023-07-09T07:14:34;24.60;99.90
21261;DHT22;10788;47.930;9.766;2023-07-09T07:16:59;24.70;99.90
21261;DHT22;10788;47.930;9.766;2023-07-09T07:19:26;24.80;99.90
21261;DHT22;10788;47.930;9.766;2023-07-09T07:21:52;24.90;99.90
21261;DHT22;10788;47.930;9.766;2023-07-09T07:24:17;25.00;99.90
21261;DHT22;10788;47.930;9.766;2023-07-09T07:26:43;25.10;99.90
21261;DHT22;10788;47.930;9.766;2023-07-09T07:29:09;25.30;99.90
21261;DHT22;10788;47.930;9.766;2023-07-09T07:31:34;25.40;99.90
21261;DHT22;10788;47.930;9.766;2023-07-09T07:34:00;25.50;99.90
21261;DHT22;10788;47.930;9.766;2023-07-09T07:36:25;25.60;99.90
21261;DHT22;10788;47.930;9.766;2023-07-09T07:38:51;25.70;99.90
21261;DHT22;10788;47.930;9.766;2023-07-09T07:41:17;25.80;99.90
21261;DHT22;10788;47.930;9.766;2023-07-09T07:43:42;26.00;99.90
21261;DHT22;10788;47.930;9.766;2023-07-09T07:46:08;26.10;99.90
21261;DHT22;10788;47.930;9.766;2023-07-09T07:48:33;26.30;99.90
21261;DHT22;10788;47.930;9.766;2023-07-09T07:51:00;26.50;99.90
21261;DHT22;10788;47.930;9.766;2023-07-09T07:53:30;26.70;99.90
21261;DHT22;10788;47.930;9.766;2023-07-09T07:55:57;26.90;99.90
21261;DHT22;10788;47.930;9.766;2023-07-09T07:58:23;27.00;99.90
21261;DHT22;10788;47.930;9.766;2023-07-09T08:00:48;27.10;99.90
21261;DHT22;10788;47.930;9.766;2023-07-09T08:03:14;27.20;99.90
21261;DHT22;10788;47.930;9.766;2023-07-09T08:05:40;27.30;99.90
21261;DHT22;10788;47.930;9.766;2023-07-09T08:08:05;27.40;99.90
21261;DHT22;10788;47.930;9.766;2023-07-09T08:10:31;27.60;99.90
21261;DHT22;10788;47.930;9.766;2023-07-09T08:12:57;27.70;99.90
21261;DHT22;10788;47.930;9.766;2023-07-09T08:15:24;27.90;99.90
21261;DHT22;10788;47.930;9.766;2023-07-09T08:17:50;28.00;99.90
21261;DHT22;10788;47.930;9.766;2023-07-09T08:20:15;28.00;99.90
21261;DHT22;10788;47.930;9.766;2023-07-09T08:22:41;28.10;99.90
21261;DHT22;10788;47.930;9.766;2023-07-09T08:25:07;28.30;99.90
21261;DHT22;10788;47.930;9.766;2023-07-09T08:27:33;28.50;99.90
21261;DHT22;10788;47.930;9.766;2023-07-09T08:29:58;28.70;99.90
21261;DHT22;10788;47.930;9.766;2023-07-09T08:32:24;28.80;99.90
21261;DHT22;10788;47.930;9.766;2023-07-09T08:34:49;29.00;99.90
21261;DHT22;10788;47.930;9.766;2023-07-09T08:37:15;29.10;99.90
21261;DHT22;10788;47.930;9.766;2023-07-09T08:39:41;29.30;99.90
21261;DHT22;10788;47.930;9.766;2023-07-09T08:42:11;29.70;99.90
21261;DHT22;10788;47.930;9.766;2023-07-09T08:50:21;29.90;99.90
21261;DHT22;10788;47.930;9.766;2023-07-09T08:52:49;30.00;99.90
21261;DHT22;10788;47.930;9.766;2023-07-09T08:55:18;30.20;99.90
21261;DHT22;10788;47.930;9.766;2023-07-09T08:57:47;30.30;99.90
21261;DHT22;10788;47.930;9.766;2023-07-09T09:03:17;30.00;99.90
21261;DHT22;10788;47.930;9.766;2023-07-09T09:05:49;30.20;99.90
21261;DHT22;10788;47.930;9.766;2023-07-09T09:08:55;30.30;99.90
21261;DHT22;10788;47.930;9.766;2023-07-09T09:11:45;30.60;99.90
21261;DHT22;10788;47.930;9.766;2023-07-09T09:16:52;30.80;99.90
21261;DHT22;10788;47.930;9.766;2023-07-09T09:19:29;31.00;99.90
21261;DHT22;10788;47.930;9.766;2023-07-09T09:22:04;31.20;99.00
21261;DHT22;10788;47.930;9.766;2023-07-09T09:24:36;31.40;98.10
21261;DHT22;10788;47.930;9.766;2023-07-09T09:27:02;31.60;98.00
21261;DHT22;10788;47.930;9.766;2023-07-09T09:29:28;31.90;98.20
21261;DHT22;10788;47.930;9.766;2023-07-09T09:31:55;32.10;97.80
21261;DHT22;10788;47.930;9.766;2023-07-09T09:34:27;31.90;97.80
21261;DHT22;10788;47.930;9.766;2023-07-09T09:36:54;31.90;97.70
21261;DHT22;10788;47.930;9.766;2023-07-09T09:39:22;31.90;98.00
21261;DHT22;10788;47.930;9.766;2023-07-09T09:41:48;31.90;97.40
21261;DHT22;10788;47.930;9.766;2023-07-09T09:44:25;32.00;96.30
21261;DHT22;10788;47.930;9.766;2023-07-09T09:46:51;32.10;95.30
21261;DHT22;10788;47.930;9.766;2023-07-09T09:49:17;32.20;95.20
21261;DHT22;10788;47.930;9.766;2023-07-09T09:51:46;32.30;94.90
21261;DHT22;10788;47.930;9.766;2023-07-09T09:54:24;32.50;94.20
21261;DHT22;10788;47.930;9.766;2023-07-09T09:56:53;32.50;94.00
21261;DHT22;10788;47.930;9.766;2023-07-09T09:59:29;32.40;92.30
21261;DHT22;10788;47.930;9.766;2023-07-09T10:02:01;32.40;91.30
21261;DHT22;10788;47.930;9.766;2023-07-09T10:04:28;32.40;90.90
21261;DHT22;10788;47.930;9.766;2023-07-09T10:07:03;32.40;90.90
21261;DHT22;10788;47.930;9.766;2023-07-09T10:09:49;32.40;90.50
21261;DHT22;10788;47.930;9.766;2023-07-09T10:12:55;32.30;90.20
21261;DHT22;10788;47.930;9.766;2023-07-09T10:21:14;32.40;91.00
21261;DHT22;10788;47.930;9.766;2023-07-09T10:26:34;32.60;91.80
21261;DHT22;10788;47.930;9.766;2023-07-09T10:35:01;32.90;90.70
21261;DHT22;10788;47.930;9.766;2023-07-09T10:40:21;33.30;88.50
21261;DHT22;10788;47.930;9.766;2023-07-09T10:42:52;33.40;83.90
21261;DHT22;10788;47.930;9.766;2023-07-09T10:45:33;33.40;83.10
21261;DHT22;10788;47.930;9.766;2023-07-09T10:48:20;33.30;81.40
21261;DHT22;10788;47.930;9.766;2023-07-09T10:50:52;33.30;82.10
21261;DHT22;10788;47.930;9.766;2023-07-09T10:53:42;33.30;84.90
21261;DHT22;10788;47.930;9.766;2023-07-09T10:56:12;33.10;82.10
21261;DHT22;10788;47.930;9.766;2023-07-09T10:58:41;33.00;82.40
21261;DHT22;10788;47.930;9.766;2023-07-09T11:01:13;33.10;84.00
21261;DHT22;10788;47.930;9.766;2023-07-09T11:03:49;33.20;84.40
21261;DHT22;10788;47.930;9.766;2023-07-09T11:06:23;33.30;86.30
21261;DHT22;10788;47.930;9.766;2023-07-09T11:08:55;33.50;83.90
21261;DHT22;10788;47.930;9.766;2023-07-09T11:11:29;33.60;83.60
21261;DHT22;10788;47.930;9.766;2023-07-09T11:14:00;33.60;82.40
21261;DHT22;10788;47.930;9.766;2023-07-09T11:16:41;33.70;83.20
21261;DHT22;10788;47.930;9.766;2023-07-09T11:19:17;33.70;83.60
21261;DHT22;10788;47.930;9.766;2023-07-09T11:22:06;33.60;85.30
21261;DHT22;10788;47.930;9.766;2023-07-09T11:24:47;33.20;83.20
21261;DHT22;10788;47.930;9.766;2023-07-09T11:27:22;33.40;86.00
21261;DHT22;10788;47.930;9.766;2023-07-09T11:30:00;33.40;84.30
21261;DHT22;10788;47.930;9.766;2023-07-09T11:32:27;33.40;84.70
21261;DHT22;10788;47.930;9.766;2023-07-09T11:34:53;33.20;85.50
21261;DHT22;10788;47.930;9.766;2023-07-09T11:37:20;33.40;85.70
21261;DHT22;10788;47.930;9.766;2023-07-09T11:39:50;33.30;84.70
21261;DHT22;10788;47.930;9.766;2023-07-09T11:42:29;33.40;85.40
21261;DHT22;10788;47.930;9.766;2023-07-09T11:50:24;33.70;76.90
21261;DHT22;10788;47.930;9.766;2023-07-09T11:52:58;33.80;76.20
21261;DHT22;10788;47.930;9.766;2023-07-09T11:55:43;33.70;74.70
21261;DHT22;10788;47.930;9.766;2023-07-09T11:58:17;33.70;75.60
21261;DHT22;10788;47.930;9.766;2023-07-09T12:00:54;33.80;76.00
21261;DHT22;10788;47.930;9.766;2023-07-09T12:03:26;33.90;76.40
21261;DHT22;10788;47.930;9.766;2023-07-09T12:08:48;33.90;75.30
21261;DHT22;10788;47.930;9.766;2023-07-09T12:11:20;34.00;76.50
21261;DHT22;10788;47.930;9.766;2023-07-09T12:13:46;34.00;75.40
21261;DHT22;10788;47.930;9.766;2023-07-09T12:16:28;34.10;79.40
21261;DHT22;10788;47.930;9.766;2023-07-09T12:18:54;34.10;78.00
21261;DHT22;10788;47.930;9.766;2023-07-09T12:21:21;34.00;78.90
21261;DHT22;10788;47.930;9.766;2023-07-09T12:23:49;34.10;80.10
21261;DHT22;10788;47.930;9.766;2023-07-09T12:26:17;34.10;79.60
21261;DHT22;10788;47.930;9.766;2023-07-09T12:28:48;34.10;76.10
21261;DHT22;10788;47.930;9.766;2023-07-09T12:31:15;34.10;74.80
21261;DHT22;10788;47.930;9.766;2023-07-09T12:33:53;34.00;74.80
21261;DHT22;10788;47.930;9.766;2023-07-09T12:36:19;34.00;75.60
21261;DHT22;10788;47.930;9.766;2023-07-09T12:38:48;34.10;76.30
21261;DHT22;10788;47.930;9.766;2023-07-09T12:41:38;34.00;74.70
21261;DHT22;10788;47.930;9.766;2023-07-09T12:44:04;34.00;73.40
21261;DHT22;10788;47.930;9.766;2023-07-09T12:46:30;33.80;73.80
21261;DHT22;10788;47.930;9.766;2023-07-09T12:48:56;33.40;72.90
21261;DHT22;10788;47.930;9.766;2023-07-09T12:51:24;33.60;74.20
21261;DHT22;10788;47.930;9.766;2023-07-09T12:54:15;33.50;73.90
21261;DHT22;10788;47.930;9.766;2023-07-09T12:56:41;33.40;75.60
21261;DHT22;10788;47.930;9.766;2023-07-09T13:01:41;33.60;77.70
21261;DHT22;10788;47.930;9.766;2023-07-09T13:04:10;33.70;78.10
21261;DHT22;10788;47.930;9.766;2023-07-09T13:06:37;33.60;77.60
21261;DHT22;10788;47.930;9.766;2023-07-09T13:09:18;33.40;75.60
21261;DHT22;10788;47.930;9.766;2023-07-09T13:11:46;33.30;75.00
21261;DHT22;10788;47.930;9.766;2023-07-09T13:14:32;33.40;76.20
21261;DHT22;10788;47.930;9.766;2023-07-09T13:17:09;33.40;74.30
21261;DHT22;10788;47.930;9.766;2023-07-09T13:19:35;33.50;76.10
21261;DHT22;10788;47.930;9.766;2023-07-09T13:22:01;33.60;76.20
21261;DHT22;10788;47.930;9.766;2023-07-09T13:24:30;33.70;75.30
21261;DHT22;10788;47.930;9.766;2023-07-09T13:26:59;33.70;75.10
21261;DHT22;10788;47.930;9.766;2023-07-09T13:29:25;33.40;74.70
21261;DHT22;10788;47.930;9.766;2023-07-09T13:31:52;33.50;75.80
21261;DHT22;10788;47.930;9.766;2023-07-09T13:34:24;33.70;76.80
21261;DHT22;10788;47.930;9.766;2023-07-09T13:36:50;33.80;78.60
21261;DHT22;10788;47.930;9.766;2023-07-09T13:39:17;33.80;76.40
21261;DHT22;10788;47.930;9.766;2023-07-09T13:41:44;33.90;76.00
21261;DHT22;10788;47.930;9.766;2023-07-09T13:44:19;33.80;76.60
21261;DHT22;10788;47.930;9.766;2023-07-09T13:46:45;34.00;75.10
21261;DHT22;10788;47.930;9.766;2023-07-09T13:49:16;33.50;73.70
21261;DHT22;10788;47.930;9.766;2023-07-09T13:51:44;33.40;75.70
21261;DHT22;10788;47.930;9.766;2023-07-09T13:54:20;33.50;75.10
21261;DHT22;10788;47.930;9.766;2023-07-09T13:56:47;33.30;76.60
21261;DHT22;10788;47.930;9.766;2023-07-09T13:59:20;33.20;76.30
21261;DHT22;10788;47.930;9.766;2023-07-09T14:01:47;33.40;74.30
21261;DHT22;10788;47.930;9.766;2023-07-09T14:04:14;33.50;74.80
21261;DHT22;10788;47.930;9.766;2023-07-09T14:06:41;33.50;76.10
21261;DHT22;10788;47.930;9.766;2023-07-09T14:09:09;33.60;74.70
21261;DHT22;10788;47.930;9.766;2023-07-09T14:11:36;33.30;74.50
21261;DHT22;10788;47.930;9.766;2023-07-09T14:14:20;33.20;76.00
21261;DHT22;10788;47.930;9.766;2023-07-09T14:16:47;33.30;77.40
21261;DHT22;10788;47.930;9.766;2023-07-09T14:19:19;33.10;73.50
21261;DHT22;10788;47.930;9.766;2023-07-09T14:21:46;33.20;75.40
21261;DHT22;10788;47.930;9.766;2023-07-09T14:24:19;33.30;78.10
21261;DHT22;10788;47.930;9.766;2023-07-09T14:26:45;33.50;76.40
21261;DHT22;10788;47.930;9.766;2023-07-09T14:29:14;33.50;76.60
21261;DHT22;10788;47.930;9.766;2023-07-09T14:31:41;33.50;78.30
21261;DHT22;10788;47.930;9.766;2023-07-09T14:34:28;33.60;77.80
21261;DHT22;10788;47.930;9.766;2023-07-09T14:36:56;33.50;78.00
21261;DHT22;10788;47.930;9.766;2023-07-09T14:39:27;33.40;76.80
21261;DHT22;10788;47.930;9.766;2023-07-09T14:41:54;33.50;79.30
21261;DHT22;10788;47.930;9.766;2023-07-09T14:44:28;33.60;78.20
21261;DHT22;10788;47.930;9.766;2023-07-09T14:46:57;33.50;76.90
21261;DHT22;10788;47.930;9.766;2023-07-09T14:49:23;33.50;78.30
21261;DHT22;10788;47.930;9.766;2023-07-09T14:51:50;33.40;75.50
21261;DHT22;10788;47.930;9.766;2023-07-09T14:54:28;33.50;78.20
21261;DHT22;10788;47.930;9.766;2023-07-09T14:56:56;33.60;79.10
21261;DHT22;10788;47.930;9.766;2023-07-09T14:59:23;33.50;79.00
21261;DHT22;10788;47.930;9.766;2023-07-09T15:01:49;33.40;78.30
21261;DHT22;10788;47.930;9.766;2023-07-09T15:06:47;33.30;79.30
21261;DHT22;10788;47.930;9.766;2023-07-09T15:09:13;33.30;78.90
21261;DHT22;10788;47.930;9.766;2023-07-09T15:11:38;33.40;77.30
21261;DHT22;10788;47.930;9.766;2023-07-09T15:14:11;33.50;77.20
21261;DHT22;10788;47.930;9.766;2023-07-09T15:16:37;33.50;77.80
21261;DHT22;10788;47.930;9.766;2023-07-09T15:19:13;33.40;74.50
21261;DHT22;10788;47.930;9.766;2023-07-09T15:21:39;33.40;77.30
21261;DHT22;10788;47.930;9.766;2023-07-09T15:24:05;33.40;77.00
21261;DHT22;10788;47.930;9.766;2023-07-09T15:26:35;33.40;75.70
21261;DHT22;10788;47.930;9.766;2023-07-09T15:29:01;33.40;77.30
21261;DHT22;10788;47.930;9.766;2023-07-09T15:31:27;33.50;76.90
21261;DHT22;10788;47.930;9.766;2023-07-09T15:33:52;33.50;77.10
21261;DHT22;10788;47.930;9.766;2023-07-09T15:36:18;33.50;78.40
21261;DHT22;10788;47.930;9.766;2023-07-09T15:38:44;33.60;76.40
21261;DHT22;10788;47.930;9.766;2023-07-09T15:41:13;33.50;74.80
21261;DHT22;10788;47.930;9.766;2023-07-09T15:43:44;33.50;75.60
21261;DHT22;10788;47.930;9.766;2023-07-09T15:46:19;33.50;75.60
21261;DHT22;10788;47.930;9.766;2023-07-09T15:48:45;33.50;75.00
21261;DHT22;10788;47.930;9.766;2023-07-09T15:51:11;33.50;74.00
21261;DHT22;10788;47.930;9.766;2023-07-09T15:53:37;33.30;77.20
21261;DHT22;10788;47.930;9.766;2023-07-09T15:56:11;33.40;77.30
21261;DHT22;10788;47.930;9.766;2023-07-09T15:58:39;33.50;76.20
21261;DHT22;10788;47.930;9.766;2023-07-09T16:01:11;33.50;72.90
21261;DHT22;10788;47.930;9.766;2023-07-09T16:03:37;33.40;75.40
21261;DHT22;10788;47.930;9.766;2023-07-09T16:06:02;33.10;74.00
21261;DHT22;10788;47.930;9.766;2023-07-09T16:08:28;33.20;75.20
21261;DHT22;10788;47.930;9.766;2023-07-09T16:10:54;33.20;75.70
21261;DHT22;10788;47.930;9.766;2023-07-09T16:13:22;33.20;74.40
21261;DHT22;10788;47.930;9.766;2023-07-09T16:15:49;33.00;72.80
21261;DHT22;10788;47.930;9.766;2023-07-09T16:18:16;32.80;73.00
21261;DHT22;10788;47.930;9.766;2023-07-09T16:20:43;32.90;74.10
21261;DHT22;10788;47.930;9.766;2023-07-09T16:23:18;32.80;74.80
21261;DHT22;10788;47.930;9.766;2023-07-09T16:25:45;32.80;74.20
21261;DHT22;10788;47.930;9.766;2023-07-09T16:28:16;32.80;74.50